createdAt,value
2018-08-17T00:00:58.880Z,1009.01
2018-08-17T00:01:58.868Z,1009.01
2018-08-17T00:02:58.851Z,1009.00
2018-08-17T00:03:58.837Z,1008.97
2018-08-17T00:04:58.831Z,1008.98
2018-08-17T00:05:58.811Z,1008.97
2018-08-17T00:06:58.797Z,1008.97
2018-08-17T00:07:58.781Z,1008.99
2018-08-17T00:08:58.766Z,1008.96
2018-08-17T00:09:58.752Z,1008.95
2018-08-17T00:10:58.744Z,1008.95
2018-08-17T00:11:58.732Z,1008.98
2018-08-17T00:12:58.710Z,1008.96
2018-08-17T00:13:58.696Z,1008.94
2018-08-17T00:14:58.683Z,1008.97
2018-08-17T00:15:58.673Z,1008.95
2018-08-17T00:16:58.662Z,1008.92
2018-08-17T00:17:58.642Z,1008.93
2018-08-17T00:18:58.628Z,1008.88
2018-08-17T00:19:58.626Z,1008.91
2018-08-17T00:20:58.600Z,1008.88
2018-08-17T00:21:58.585Z,1008.88
2018-08-17T00:22:58.570Z,1008.87
2018-08-17T00:23:58.554Z,1008.87
2018-08-17T00:24:58.543Z,1008.88
2018-08-17T00:25:58.529Z,1008.87
2018-08-17T00:26:58.516Z,1008.85
2018-08-17T00:27:58.500Z,1008.81
2018-08-17T00:28:58.486Z,1008.87
2018-08-17T00:29:58.471Z,1008.85
2018-08-17T00:30:58.458Z,1008.84
2018-08-17T00:31:58.447Z,1008.84
2018-08-17T00:32:58.428Z,1008.84
2018-08-17T00:33:58.416Z,1008.86
2018-08-17T00:34:58.400Z,1008.82
2018-08-17T00:35:58.386Z,1008.82
2018-08-17T00:36:58.373Z,1008.84
2018-08-17T00:37:58.362Z,1008.79
2018-08-17T00:38:58.343Z,1008.79
2018-08-17T00:39:58.329Z,1008.79
2018-08-17T00:40:58.315Z,1008.80
2018-08-17T00:41:58.301Z,1008.82
2018-08-17T00:42:58.289Z,1008.84
2018-08-17T00:43:58.277Z,1008.83
2018-08-17T00:44:58.261Z,1008.83
2018-08-17T00:45:58.245Z,1008.86
2018-08-17T00:46:58.231Z,1008.90
2018-08-17T00:47:58.219Z,1008.92
2018-08-17T00:48:58.209Z,1008.88
2018-08-17T00:49:58.238Z,1008.84
2018-08-17T00:50:58.175Z,1008.86
2018-08-17T00:51:58.170Z,1008.87
2018-08-17T00:52:58.149Z,1008.91
2018-08-17T00:53:58.133Z,1008.90
2018-08-17T00:54:58.127Z,1008.97
2018-08-17T00:55:58.104Z,1008.91
2018-08-17T00:56:58.090Z,1008.93
2018-08-17T00:57:58.077Z,1008.91
2018-08-17T00:58:58.064Z,1008.93
2018-08-17T00:59:58.056Z,1008.92
2018-08-17T01:00:58.033Z,1008.90
2018-08-17T01:01:58.019Z,1008.94
2018-08-17T01:02:58.006Z,1008.94
2018-08-17T01:03:57.993Z,1008.96
2018-08-17T01:04:57.979Z,1008.94
2018-08-17T01:05:57.963Z,1008.96
2018-08-17T01:06:57.950Z,1008.96
2018-08-17T01:07:57.936Z,1008.99
2018-08-17T01:08:57.923Z,1008.99
2018-08-17T01:09:57.908Z,1009.01
2018-08-17T01:10:57.894Z,1009.03
2018-08-17T01:11:57.880Z,1009.03
2018-08-17T01:12:57.866Z,1009.05
2018-08-17T01:13:57.856Z,1009.03
2018-08-17T01:14:57.839Z,1009.05
2018-08-17T01:15:57.826Z,1009.08
2018-08-17T01:16:57.811Z,1009.08
2018-08-17T01:17:57.802Z,1009.12
2018-08-17T01:18:57.781Z,1009.10
2018-08-17T01:19:57.768Z,1009.11
2018-08-17T01:20:57.753Z,1009.12
2018-08-17T01:21:57.749Z,1009.11
2018-08-17T01:22:57.726Z,1009.11
2018-08-17T01:23:57.714Z,1009.14
2018-08-17T01:24:57.696Z,1009.14
2018-08-17T01:25:57.686Z,1009.12
2018-08-17T01:26:57.672Z,1009.18
2018-08-17T01:27:57.655Z,1009.16
2018-08-17T01:28:57.693Z,1009.18
2018-08-17T01:29:57.642Z,1009.17
2018-08-17T01:30:57.613Z,1009.20
2018-08-17T01:31:57.599Z,1009.19
2018-08-17T01:32:57.739Z,1009.26
2018-08-17T01:33:57.572Z,1009.27
2018-08-17T01:34:57.557Z,1009.26
2018-08-17T01:35:57.541Z,1009.26
2018-08-17T01:36:57.531Z,1009.26
2018-08-17T01:37:57.515Z,1009.30
2018-08-17T01:38:57.507Z,1009.32
2018-08-17T01:39:57.485Z,1009.32
2018-08-17T01:40:57.471Z,1009.31
2018-08-17T01:41:57.457Z,1009.33
2018-08-17T01:42:57.443Z,1009.33
2018-08-17T01:43:57.428Z,1009.42
2018-08-17T01:44:57.419Z,1009.39
2018-08-17T01:45:57.401Z,1009.44
2018-08-17T01:46:57.393Z,1009.47
2018-08-17T01:47:57.372Z,1009.47
2018-08-17T01:48:57.362Z,1009.49
2018-08-17T01:49:57.347Z,1009.48
2018-08-17T01:50:57.344Z,1009.50
2018-08-17T01:51:57.318Z,1009.47
2018-08-17T01:52:57.303Z,1009.50
2018-08-17T01:53:57.288Z,1009.57
2018-08-17T01:54:57.274Z,1009.56
2018-08-17T01:55:57.261Z,1009.58
2018-08-17T01:56:57.246Z,1009.58
2018-08-17T01:57:57.232Z,1009.59
2018-08-17T01:58:57.219Z,1009.65
2018-08-17T01:59:57.206Z,1009.74
2018-08-17T02:00:57.196Z,1009.81
2018-08-17T02:01:57.288Z,1009.91
2018-08-17T02:02:57.164Z,1009.87
2018-08-17T02:03:57.149Z,1009.88
2018-08-17T02:04:57.144Z,1009.84
2018-08-17T02:05:57.122Z,1009.86
2018-08-17T02:06:57.114Z,1009.93
2018-08-17T02:07:57.102Z,1009.96
2018-08-17T02:08:57.079Z,1009.97
2018-08-17T02:09:57.066Z,1010.01
2018-08-17T02:10:57.052Z,1010.06
2018-08-17T02:11:57.036Z,1010.05
2018-08-17T02:12:57.026Z,1010.05
2018-08-17T02:13:57.008Z,1010.06
2018-08-17T02:14:56.994Z,1010.09
2018-08-17T02:15:56.981Z,1010.11
2018-08-17T02:16:56.968Z,1010.11
2018-08-17T02:17:56.954Z,1010.14
2018-08-17T02:18:56.941Z,1010.22
2018-08-17T02:19:56.925Z,1010.17
2018-08-17T02:20:56.916Z,1010.15
2018-08-17T02:21:56.900Z,1010.19
2018-08-17T02:22:56.883Z,1010.17
2018-08-17T02:23:56.869Z,1010.22
2018-08-17T02:24:56.855Z,1010.19
2018-08-17T02:25:56.842Z,1010.22
2018-08-17T02:26:56.836Z,1010.21
2018-08-17T02:27:56.813Z,1010.25
2018-08-17T02:28:56.798Z,1010.21
2018-08-17T02:29:56.785Z,1010.20
2018-08-17T02:30:56.772Z,1010.16
2018-08-17T02:31:56.756Z,1010.12
2018-08-17T02:32:56.742Z,1010.10
2018-08-17T02:33:56.729Z,1010.08
2018-08-17T02:34:56.715Z,1010.10
2018-08-17T02:35:56.701Z,1010.12
2018-08-17T02:36:56.700Z,1010.15
2018-08-17T02:37:56.673Z,1010.17
2018-08-17T02:38:56.665Z,1010.20
2018-08-17T02:39:56.644Z,1010.21
2018-08-17T02:40:56.631Z,1010.20
2018-08-17T02:41:56.615Z,1010.18
2018-08-17T02:42:56.602Z,1010.18
2018-08-17T02:43:56.587Z,1010.19
2018-08-17T02:44:56.573Z,1010.17
2018-08-17T02:45:56.561Z,1010.16
2018-08-17T02:46:56.547Z,1010.16
2018-08-17T02:47:56.540Z,1010.20
2018-08-17T02:48:56.516Z,1010.25
2018-08-17T02:49:56.503Z,1010.28
2018-08-17T02:50:56.504Z,1010.27
2018-08-17T02:51:56.473Z,1010.31
2018-08-17T02:52:56.461Z,1010.38
2018-08-17T02:53:56.463Z,1010.39
2018-08-17T02:54:56.434Z,1010.34
2018-08-17T02:55:56.419Z,1010.33
2018-08-17T02:56:56.403Z,1010.31
2018-08-17T02:57:56.388Z,1010.30
2018-08-17T02:58:56.375Z,1010.36
2018-08-17T02:59:56.363Z,1010.41
2018-08-17T03:00:56.345Z,1010.45
2018-08-17T03:01:56.332Z,1010.47
2018-08-17T03:02:56.317Z,1010.44
2018-08-17T03:03:56.302Z,1010.42
2018-08-17T03:04:56.289Z,1010.46
2018-08-17T03:05:56.273Z,1010.45
2018-08-17T03:06:56.263Z,1010.41
2018-08-17T03:07:56.245Z,1010.43
2018-08-17T03:08:56.232Z,1010.44
2018-08-17T03:09:56.218Z,1010.45
2018-08-17T03:10:56.203Z,1010.40
2018-08-17T03:11:56.189Z,1010.41
2018-08-17T03:12:56.176Z,1010.43
2018-08-17T03:13:56.162Z,1010.40
2018-08-17T03:14:56.146Z,1010.43
2018-08-17T03:15:56.132Z,1010.47
2018-08-17T03:16:56.119Z,1010.40
2018-08-17T03:17:56.107Z,1010.44
2018-08-17T03:18:56.088Z,1010.43
2018-08-17T03:19:56.073Z,1010.46
2018-08-17T03:20:56.060Z,1010.46
2018-08-17T03:21:56.044Z,1010.46
2018-08-17T03:22:56.031Z,1010.46
2018-08-17T03:23:56.016Z,1010.43
2018-08-17T03:24:56.001Z,1010.41
2018-08-17T03:25:55.993Z,1010.41
2018-08-17T03:26:55.972Z,1010.37
2018-08-17T03:27:55.961Z,1010.39
2018-08-17T03:28:55.943Z,1010.42
2018-08-17T03:29:55.929Z,1010.38
2018-08-17T03:30:55.915Z,1010.40
2018-08-17T03:31:55.907Z,1010.38
2018-08-17T03:32:55.885Z,1010.36
2018-08-17T03:33:55.873Z,1010.34
2018-08-17T03:34:55.858Z,1010.35
2018-08-17T03:35:55.843Z,1010.35
2018-08-17T03:36:55.831Z,1010.37
2018-08-17T03:37:55.825Z,1010.39
2018-08-17T03:38:55.802Z,1010.38
2018-08-17T03:39:55.786Z,1010.37
2018-08-17T03:40:55.773Z,1010.44
2018-08-17T03:41:55.757Z,1010.42
2018-08-17T03:42:55.743Z,1010.45
2018-08-17T03:43:55.728Z,1010.43
2018-08-17T03:44:55.714Z,1010.41
2018-08-17T03:45:55.699Z,1010.39
2018-08-17T03:46:55.686Z,1010.38
2018-08-17T03:47:55.681Z,1010.38
2018-08-17T03:48:55.656Z,1010.42
2018-08-17T03:49:55.643Z,1010.42
2018-08-17T03:50:55.629Z,1010.43
2018-08-17T03:51:55.613Z,1010.46
2018-08-17T03:52:55.603Z,1010.36
2018-08-17T03:53:55.584Z,1010.36
2018-08-17T03:54:55.571Z,1010.33
2018-08-17T03:55:55.558Z,1010.34
2018-08-17T03:56:55.542Z,1010.39
2018-08-17T03:57:55.528Z,1010.40
2018-08-17T03:58:55.521Z,1010.40
2018-08-17T03:59:55.500Z,1010.34
2018-08-17T04:00:55.493Z,1010.29
2018-08-17T04:01:55.474Z,1010.29
2018-08-17T04:02:55.461Z,1010.29
2018-08-17T04:03:55.444Z,1010.31
2018-08-17T04:04:55.429Z,1010.37
2018-08-17T04:05:55.416Z,1010.39
2018-08-17T04:06:55.410Z,1010.45
2018-08-17T04:07:55.388Z,1010.42
2018-08-17T04:08:55.373Z,1010.36
2018-08-17T04:09:55.365Z,1010.34
2018-08-17T04:10:55.344Z,1010.36
2018-08-17T04:11:55.330Z,1010.34
2018-08-17T04:12:55.315Z,1010.46
2018-08-17T04:13:55.302Z,1010.51
2018-08-17T04:14:55.289Z,1010.52
2018-08-17T04:15:55.273Z,1010.55
2018-08-17T04:16:55.257Z,1010.51
2018-08-17T04:17:55.244Z,1010.51
2018-08-17T04:18:55.231Z,1010.52
2018-08-17T04:19:55.219Z,1010.49
2018-08-17T04:20:55.203Z,1010.51
2018-08-17T04:21:55.187Z,1010.54
2018-08-17T04:22:55.172Z,1010.59
2018-08-17T04:23:55.338Z,1010.63
2018-08-17T04:24:55.144Z,1010.62
2018-08-17T04:25:55.132Z,1010.61
2018-08-17T04:26:55.124Z,1010.59
2018-08-17T04:27:55.101Z,1010.64
2018-08-17T04:28:55.089Z,1010.65
2018-08-17T04:29:55.073Z,1010.69
2018-08-17T04:30:55.062Z,1010.72
2018-08-17T04:31:55.044Z,1010.75
2018-08-17T04:32:55.031Z,1010.82
2018-08-17T04:33:55.018Z,1010.82
2018-08-17T04:34:55.005Z,1010.88
2018-08-17T04:35:54.990Z,1010.91
2018-08-17T04:36:54.983Z,1010.96
2018-08-17T04:37:54.959Z,1010.98
2018-08-17T04:38:54.950Z,1010.99
2018-08-17T04:39:54.931Z,1010.97
2018-08-17T04:40:54.918Z,1010.96
2018-08-17T04:41:54.903Z,1010.91
2018-08-17T04:42:54.890Z,1010.90
2018-08-17T04:43:54.876Z,1010.91
2018-08-17T04:44:54.862Z,1010.92
2018-08-17T04:45:54.847Z,1010.94
2018-08-17T04:46:54.834Z,1011.02
2018-08-17T04:47:54.818Z,1011.06
2018-08-17T04:48:54.807Z,1011.13
2018-08-17T04:49:54.792Z,1011.18
2018-08-17T04:50:54.794Z,1011.30
2018-08-17T04:51:54.764Z,1011.32
2018-08-17T04:52:54.765Z,1011.33
2018-08-17T04:53:54.735Z,1011.31
2018-08-17T04:54:54.721Z,1011.20
2018-08-17T04:55:54.706Z,1011.19
2018-08-17T04:56:54.694Z,1011.06
2018-08-17T04:57:54.680Z,1011.02
2018-08-17T04:58:54.671Z,1010.97
2018-08-17T04:59:54.649Z,1010.90
2018-08-17T05:00:54.636Z,1010.89
2018-08-17T05:01:54.622Z,1010.91
2018-08-17T05:02:54.663Z,1010.88
2018-08-17T05:03:54.593Z,1010.90
2018-08-17T05:04:54.579Z,1010.89
2018-08-17T05:05:54.565Z,1010.94
2018-08-17T05:06:54.550Z,1010.91
2018-08-17T05:07:54.536Z,1010.91
2018-08-17T05:08:54.536Z,1010.84
2018-08-17T05:09:54.514Z,1010.78
2018-08-17T05:10:54.495Z,1010.77
2018-08-17T05:11:54.479Z,1010.76
2018-08-17T05:12:54.466Z,1010.80
2018-08-17T05:13:54.452Z,1010.83
2018-08-17T05:14:54.441Z,1010.81
2018-08-17T05:15:54.519Z,1010.90
2018-08-17T05:16:54.410Z,1010.95
2018-08-17T05:17:54.398Z,1010.92
2018-08-17T05:18:54.385Z,1010.99
2018-08-17T05:19:54.367Z,1010.98
2018-08-17T05:20:54.353Z,1010.97
2018-08-17T05:21:54.339Z,1010.98
2018-08-17T05:22:54.326Z,1010.97
2018-08-17T05:23:54.315Z,1010.96
2018-08-17T05:24:54.299Z,1010.94
2018-08-17T05:25:54.283Z,1010.99
2018-08-17T05:26:54.270Z,1010.94
2018-08-17T05:27:54.255Z,1010.96
2018-08-17T05:28:54.242Z,1010.99
2018-08-17T05:29:54.239Z,1010.96
2018-08-17T05:30:54.218Z,1010.98
2018-08-17T05:31:54.205Z,1010.99
2018-08-17T05:32:54.187Z,1011.01
2018-08-17T05:33:54.174Z,1011.00
2018-08-17T05:34:54.159Z,1011.02
2018-08-17T05:35:54.152Z,1011.05
2018-08-17T05:36:54.133Z,1011.06
2018-08-17T05:37:54.117Z,1011.05
2018-08-17T05:38:54.104Z,1011.04
2018-08-17T05:39:54.092Z,1011.06
2018-08-17T05:40:54.078Z,1011.07
2018-08-17T05:41:54.065Z,1011.05
2018-08-17T05:42:54.057Z,1011.11
2018-08-17T05:43:54.043Z,1011.08
2018-08-17T05:44:54.024Z,1011.12
2018-08-17T05:45:54.008Z,1011.12
2018-08-17T05:46:53.995Z,1011.12
2018-08-17T05:47:53.979Z,1011.08
2018-08-17T05:48:53.968Z,1011.06
2018-08-17T05:49:53.957Z,1011.06
2018-08-17T05:50:53.956Z,1011.03
2018-08-17T05:51:53.924Z,1011.06
2018-08-17T05:52:53.911Z,1011.09
2018-08-17T05:53:53.896Z,1011.16
2018-08-17T05:54:53.888Z,1011.22
2018-08-17T05:55:53.869Z,1011.23
2018-08-17T05:56:53.860Z,1011.27
2018-08-17T05:57:53.842Z,1011.29
2018-08-17T05:58:53.830Z,1011.28
2018-08-17T05:59:53.814Z,1011.30
2018-08-17T06:00:53.800Z,1011.31
2018-08-17T06:01:53.787Z,1011.33
2018-08-17T06:02:53.867Z,1011.37
2018-08-17T06:03:53.759Z,1011.35
2018-08-17T06:04:53.746Z,1011.35
2018-08-17T06:05:53.735Z,1011.37
2018-08-17T06:06:53.720Z,1011.43
2018-08-17T06:07:53.705Z,1011.43
2018-08-17T06:08:53.694Z,1011.44
2018-08-17T06:09:53.680Z,1011.41
2018-08-17T06:10:53.732Z,1011.35
2018-08-17T06:11:53.659Z,1011.38
2018-08-17T06:12:53.636Z,1011.36
2018-08-17T06:13:53.620Z,1011.35
2018-08-17T06:14:53.607Z,1011.35
2018-08-17T06:15:53.599Z,1011.34
2018-08-17T06:16:53.584Z,1011.33
2018-08-17T06:17:53.566Z,1011.36
2018-08-17T06:18:53.553Z,1011.37
2018-08-17T06:19:53.536Z,1011.40
2018-08-17T06:20:53.524Z,1011.46
2018-08-17T06:21:53.511Z,1011.55
2018-08-17T06:22:53.496Z,1011.58
2018-08-17T06:23:53.480Z,1011.70
2018-08-17T06:24:53.469Z,1011.77
2018-08-17T06:25:53.453Z,1011.83
2018-08-17T06:26:53.442Z,1011.85
2018-08-17T06:27:53.424Z,1011.91
2018-08-17T06:28:53.411Z,1011.97
2018-08-17T06:29:53.398Z,1011.99
2018-08-17T06:30:53.386Z,1012.00
2018-08-17T06:31:53.370Z,1012.03
2018-08-17T06:32:53.357Z,1012.11
2018-08-17T06:33:53.340Z,1012.11
2018-08-17T06:34:53.326Z,1012.14
2018-08-17T06:35:53.316Z,1012.13
2018-08-17T06:36:53.299Z,1012.12
2018-08-17T06:37:53.284Z,1012.14
2018-08-17T06:38:53.321Z,1012.13
2018-08-17T06:39:53.300Z,1012.13
2018-08-17T06:40:53.265Z,1012.06
2018-08-17T06:41:53.279Z,1012.05
2018-08-17T06:42:53.214Z,1012.08
2018-08-17T06:43:53.199Z,1012.07
2018-08-17T06:44:53.186Z,1012.04
2018-08-17T06:45:53.173Z,1012.02
2018-08-17T06:46:53.168Z,1012.08
2018-08-17T06:47:53.145Z,1012.03
2018-08-17T06:48:53.129Z,1012.07
2018-08-17T06:49:53.119Z,1012.13
2018-08-17T06:50:53.283Z,1012.14
2018-08-17T06:51:53.089Z,1012.16
2018-08-17T06:52:53.073Z,1012.18
2018-08-17T06:53:53.059Z,1012.12
2018-08-17T06:54:53.045Z,1012.14
2018-08-17T06:55:53.034Z,1012.11
2018-08-17T06:56:53.018Z,1012.04
2018-08-17T06:57:53.011Z,1012.03
2018-08-17T06:58:53.013Z,1012.02
2018-08-17T06:59:52.974Z,1011.97
2018-08-17T07:00:52.959Z,1011.97
2018-08-17T07:01:52.946Z,1011.97
2018-08-17T07:02:52.933Z,1011.90
2018-08-17T07:03:52.922Z,1011.87
2018-08-17T07:04:52.904Z,1011.82
2018-08-17T07:05:52.897Z,1011.80
2018-08-17T07:06:52.875Z,1011.72
2018-08-17T07:07:52.869Z,1011.63
2018-08-17T07:08:52.949Z,1011.62
2018-08-17T07:09:52.832Z,1011.63
2018-08-17T07:10:52.823Z,1011.68
2018-08-17T07:11:52.803Z,1011.76
2018-08-17T07:12:52.791Z,1011.82
2018-08-17T07:13:52.775Z,1011.88
2018-08-17T07:14:52.761Z,1011.93
2018-08-17T07:15:52.746Z,1011.93
2018-08-17T07:16:52.734Z,1011.98
2018-08-17T07:17:52.719Z,1012.02
2018-08-17T07:18:52.712Z,1012.05
2018-08-17T07:19:52.693Z,1012.10
2018-08-17T07:20:52.674Z,1012.16
2018-08-17T07:21:52.666Z,1012.17
2018-08-17T07:22:52.646Z,1012.24
2018-08-17T07:23:52.629Z,1012.27
2018-08-17T07:24:52.617Z,1012.33
2018-08-17T07:25:52.602Z,1012.31
2018-08-17T07:26:52.591Z,1012.31
2018-08-17T07:27:52.701Z,1012.33
2018-08-17T07:28:52.561Z,1012.35
2018-08-17T07:29:52.544Z,1012.41
2018-08-17T07:30:52.531Z,1012.42
2018-08-17T07:31:52.515Z,1012.51
2018-08-17T07:32:52.506Z,1012.49
2018-08-17T07:33:52.496Z,1012.57
2018-08-17T07:34:52.475Z,1012.59
2018-08-17T07:35:52.554Z,1012.58
2018-08-17T07:36:52.452Z,1012.55
2018-08-17T07:37:52.583Z,1012.58
2018-08-17T07:38:52.417Z,1012.59
2018-08-17T07:39:52.401Z,1012.58
2018-08-17T07:40:52.391Z,1012.55
2018-08-17T07:41:52.387Z,1012.51
2018-08-17T07:42:52.362Z,1012.54
2018-08-17T07:43:52.353Z,1012.50
2018-08-17T07:44:52.333Z,1012.51
2018-08-17T07:45:52.317Z,1012.45
2018-08-17T07:46:52.304Z,1012.40
2018-08-17T07:47:52.304Z,1012.38
2018-08-17T07:48:52.275Z,1012.35
2018-08-17T07:49:52.260Z,1012.32
2018-08-17T07:50:52.249Z,1012.34
2018-08-17T07:51:52.235Z,1012.38
2018-08-17T07:52:52.219Z,1012.38
2018-08-17T07:53:52.202Z,1012.30
2018-08-17T07:54:52.188Z,1012.24
2018-08-17T07:55:52.182Z,1012.23
2018-08-17T07:56:52.161Z,1012.20
2018-08-17T07:57:52.145Z,1012.12
2018-08-17T07:58:52.170Z,1012.02
2018-08-17T07:59:52.117Z,1012.05
2018-08-17T08:00:52.104Z,1012.05
2018-08-17T08:01:52.092Z,1012.06
2018-08-17T08:02:52.073Z,1012.10
2018-08-17T08:03:52.056Z,1012.17
2018-08-17T08:04:52.044Z,1012.20
2018-08-17T08:05:52.030Z,1012.14
2018-08-17T08:06:52.015Z,1012.16
2018-08-17T08:07:52.001Z,1012.16
2018-08-17T08:08:51.985Z,1012.13
2018-08-17T08:09:51.970Z,1012.11
2018-08-17T08:10:51.956Z,1012.09
2018-08-17T08:11:51.944Z,1012.00
2018-08-17T08:12:51.927Z,1012.01
2018-08-17T08:13:51.913Z,1012.02
2018-08-17T08:14:51.905Z,1012.03
2018-08-17T08:15:51.881Z,1012.03
2018-08-17T08:16:51.868Z,1012.06
2018-08-17T08:17:51.862Z,1012.11
2018-08-17T08:18:51.839Z,1012.08
2018-08-17T08:19:51.822Z,1012.10
2018-08-17T08:20:51.823Z,1012.10
2018-08-17T08:21:51.798Z,1012.13
2018-08-17T08:22:51.779Z,1012.11
2018-08-17T08:23:51.763Z,1012.08
2018-08-17T08:24:51.751Z,1012.09
2018-08-17T08:25:51.781Z,1012.07
2018-08-17T08:26:51.721Z,1012.11
2018-08-17T08:27:51.709Z,1012.15
2018-08-17T08:28:51.690Z,1012.18
2018-08-17T08:29:51.676Z,1012.21
2018-08-17T08:30:51.664Z,1012.25
2018-08-17T08:31:51.646Z,1012.30
2018-08-17T08:32:51.631Z,1012.34
2018-08-17T08:33:51.818Z,1012.38
2018-08-17T08:34:51.602Z,1012.44
2018-08-17T08:35:51.587Z,1012.48
2018-08-17T08:36:51.576Z,1012.49
2018-08-17T08:37:51.558Z,1012.53
2018-08-17T08:38:51.546Z,1012.55
2018-08-17T08:39:51.581Z,1012.55
2018-08-17T08:40:51.516Z,1012.52
2018-08-17T08:41:51.502Z,1012.49
2018-08-17T08:42:51.486Z,1012.48
2018-08-17T08:43:51.473Z,1012.51
2018-08-17T08:44:51.481Z,1012.52
2018-08-17T08:45:51.529Z,1012.57
2018-08-17T08:46:51.438Z,1012.56
2018-08-17T08:47:51.412Z,1012.59
2018-08-17T08:48:51.398Z,1012.54
2018-08-17T08:49:51.402Z,1012.56
2018-08-17T08:50:51.370Z,1012.57
2018-08-17T08:51:51.355Z,1012.62
2018-08-17T08:52:51.342Z,1012.62
2018-08-17T08:53:51.330Z,1012.66
2018-08-17T08:54:51.315Z,1012.68
2018-08-17T08:55:51.337Z,1012.71
2018-08-17T08:56:51.289Z,1012.69
2018-08-17T08:57:51.281Z,1012.74
2018-08-17T08:58:51.261Z,1012.70
2018-08-17T08:59:51.246Z,1012.76
2018-08-17T09:00:51.234Z,1012.74
2018-08-17T09:01:51.311Z,1012.74
2018-08-17T09:02:51.208Z,1012.76
2018-08-17T09:03:51.192Z,1012.80
2018-08-17T09:04:51.178Z,1012.87
2018-08-17T09:05:51.167Z,1012.82
2018-08-17T09:06:51.156Z,1012.87
2018-08-17T09:07:51.148Z,1012.85
2018-08-17T09:08:51.136Z,1012.94
2018-08-17T09:09:51.115Z,1013.00
2018-08-17T09:10:51.104Z,1012.90
2018-08-17T09:11:51.091Z,1012.86
2018-08-17T09:12:51.078Z,1012.87
2018-08-17T09:13:51.230Z,1012.97
2018-08-17T09:14:51.056Z,1013.00
2018-08-17T09:15:51.044Z,1012.99
2018-08-17T09:16:51.032Z,1012.96
2018-08-17T09:17:51.018Z,1012.99
2018-08-17T09:18:51.007Z,1012.91
2018-08-17T09:19:50.995Z,1012.93
2018-08-17T09:20:51.125Z,1012.89
2018-08-17T09:21:50.980Z,1012.87
2018-08-17T09:22:50.969Z,1012.86
2018-08-17T09:23:50.957Z,1012.88
2018-08-17T09:24:50.942Z,1012.89
2018-08-17T09:25:50.935Z,1012.88
2018-08-17T09:26:50.919Z,1012.91
2018-08-17T09:27:50.904Z,1012.89
2018-08-17T09:28:50.893Z,1012.92
2018-08-17T09:29:50.883Z,1012.93
2018-08-17T09:30:50.870Z,1012.92
2018-08-17T09:31:50.868Z,1012.98
2018-08-17T09:32:50.847Z,1012.96
2018-08-17T09:33:50.844Z,1013.00
2018-08-17T09:34:50.825Z,1013.01
2018-08-17T09:35:50.812Z,1012.99
2018-08-17T09:36:50.802Z,1012.99
2018-08-17T09:37:50.795Z,1013.00
2018-08-17T09:38:50.780Z,1013.01
2018-08-17T09:39:50.769Z,1013.02
2018-08-17T09:40:50.757Z,1013.01
2018-08-17T09:41:50.847Z,1013.00
2018-08-17T09:42:50.734Z,1012.99
2018-08-17T09:43:50.730Z,1012.96
2018-08-17T09:44:50.713Z,1012.96
2018-08-17T09:45:50.700Z,1012.95
2018-08-17T09:46:50.701Z,1012.96
2018-08-17T09:47:50.684Z,1012.95
2018-08-17T09:48:50.673Z,1012.96
2018-08-17T09:49:50.663Z,1012.98
2018-08-17T09:50:50.643Z,1012.98
2018-08-17T09:51:50.630Z,1013.01
2018-08-17T09:52:50.627Z,1013.01
2018-08-17T09:53:50.614Z,1013.04
2018-08-17T09:54:50.604Z,1013.05
2018-08-17T09:55:50.595Z,1013.04
2018-08-17T09:56:50.573Z,1013.06
2018-08-17T09:57:50.586Z,1013.07
2018-08-17T09:58:50.552Z,1013.04
2018-08-17T09:59:50.542Z,1013.05
2018-08-17T10:00:50.530Z,1013.06
2018-08-17T10:01:50.517Z,1013.04
2018-08-17T10:02:50.508Z,1013.06
2018-08-17T10:03:50.522Z,1013.03
2018-08-17T10:04:50.482Z,1013.01
2018-08-17T10:05:50.476Z,1013.11
2018-08-17T10:06:50.460Z,1013.13
2018-08-17T10:07:50.446Z,1013.16
2018-08-17T10:08:50.436Z,1013.13
2018-08-17T10:09:50.424Z,1013.15
2018-08-17T10:10:50.414Z,1013.16
2018-08-17T10:12:59.368Z,1013.14
2018-08-17T10:13:59.356Z,1013.10
2018-08-17T10:14:59.349Z,1013.08
2018-08-17T10:15:59.342Z,1013.13
2018-08-17T10:16:59.320Z,1013.10
2018-08-17T10:17:59.308Z,1013.08
2018-08-17T10:18:59.297Z,1013.12
2018-08-17T10:19:59.289Z,1013.15
2018-08-17T10:20:59.358Z,1013.18
2018-08-17T10:21:59.569Z,1013.14
2018-08-17T10:22:59.257Z,1013.17
2018-08-17T10:23:59.243Z,1013.21
2018-08-17T10:24:59.224Z,1013.18
2018-08-17T10:25:59.227Z,1013.23
2018-08-17T10:26:59.202Z,1013.26
2018-08-17T10:27:59.190Z,1013.26
2018-08-17T10:28:59.184Z,1013.23
2018-08-17T10:29:59.167Z,1013.22
2018-08-17T10:30:59.161Z,1013.28
2018-08-17T10:31:59.154Z,1013.29
2018-08-17T10:32:59.129Z,1013.27
2018-08-17T10:33:59.182Z,1013.27
2018-08-17T10:34:59.114Z,1013.31
2018-08-17T10:35:59.095Z,1013.33
2018-08-17T10:36:59.080Z,1013.33
2018-08-17T10:37:59.078Z,1013.36
2018-08-17T10:38:59.058Z,1013.38
2018-08-17T10:39:59.055Z,1013.32
2018-08-17T10:40:59.038Z,1013.31
2018-08-17T10:41:59.029Z,1013.32
2018-08-17T10:42:59.011Z,1013.27
2018-08-17T10:43:59.007Z,1013.32
2018-08-17T10:44:59.025Z,1013.32
2018-08-17T10:45:58.983Z,1013.31
2018-08-17T10:46:58.963Z,1013.30
2018-08-17T10:47:58.952Z,1013.29
2018-08-17T10:48:59.044Z,1013.28
2018-08-17T10:49:58.935Z,1013.32
2018-08-17T10:50:58.923Z,1013.28
2018-08-17T10:51:58.909Z,1013.29
2018-08-17T10:52:58.897Z,1013.28
2018-08-17T10:53:58.895Z,1013.25
2018-08-17T10:54:58.875Z,1013.29
2018-08-17T10:55:58.865Z,1013.32
2018-08-17T10:56:58.859Z,1013.32
2018-08-17T10:57:58.850Z,1013.37
2018-08-17T10:58:58.838Z,1013.34
2018-08-17T10:59:58.822Z,1013.32
2018-08-17T11:00:58.815Z,1013.36
2018-08-17T11:01:58.801Z,1013.28
2018-08-17T11:02:58.799Z,1013.28
2018-08-17T11:03:58.782Z,1013.31
2018-08-17T11:04:58.777Z,1013.30
2018-08-17T11:05:58.757Z,1013.29
2018-08-17T11:06:58.745Z,1013.33
2018-08-17T11:07:58.738Z,1013.32
2018-08-17T11:08:58.727Z,1013.31
2018-08-17T11:09:58.721Z,1013.31
2018-08-17T11:10:58.761Z,1013.28
2018-08-17T11:11:58.697Z,1013.37
2018-08-17T11:12:58.693Z,1013.32
2018-08-17T11:13:58.687Z,1013.28
2018-08-17T11:14:58.666Z,1013.28
2018-08-17T11:15:58.656Z,1013.29
2018-08-17T11:16:58.719Z,1013.29
2018-08-17T11:17:58.653Z,1013.32
2018-08-17T11:18:58.623Z,1013.27
2018-08-17T11:19:58.615Z,1013.30
2018-08-17T11:20:58.604Z,1013.30
2018-08-17T11:21:58.601Z,1013.31
2018-08-17T11:22:58.791Z,1013.31
2018-08-17T11:23:58.672Z,1013.32
2018-08-17T11:24:58.560Z,1013.38
2018-08-17T11:25:58.550Z,1013.34
2018-08-17T11:26:58.540Z,1013.33
2018-08-17T11:27:58.533Z,1013.33
2018-08-17T11:28:58.520Z,1013.35
2018-08-17T11:29:58.506Z,1013.42
2018-08-17T11:30:58.498Z,1013.39
2018-08-17T11:31:58.485Z,1013.42
2018-08-17T11:32:58.477Z,1013.38
2018-08-17T11:33:58.465Z,1013.41
2018-08-17T11:34:58.452Z,1013.43
2018-08-17T11:35:58.443Z,1013.42
2018-08-17T11:36:58.431Z,1013.41
2018-08-17T11:37:58.418Z,1013.46
2018-08-17T11:38:58.408Z,1013.46
2018-08-17T11:39:58.498Z,1013.49
2018-08-17T11:40:58.386Z,1013.45
2018-08-17T11:41:58.386Z,1013.44
2018-08-17T11:42:58.373Z,1013.45
2018-08-17T11:43:58.362Z,1013.44
2018-08-17T11:44:58.348Z,1013.46
2018-08-17T11:45:58.344Z,1013.40
2018-08-17T11:46:58.322Z,1013.45
2018-08-17T11:47:58.319Z,1013.42
2018-08-17T11:48:58.307Z,1013.47
2018-08-17T11:49:58.296Z,1013.54
2018-08-17T11:50:58.280Z,1013.59
2018-08-17T11:51:58.270Z,1013.59
2018-08-17T11:52:58.257Z,1013.62
2018-08-17T11:53:58.287Z,1013.63
2018-08-17T11:54:58.244Z,1013.59
2018-08-17T11:55:58.225Z,1013.59
2018-08-17T11:56:58.213Z,1013.60
2018-08-17T11:57:58.204Z,1013.55
2018-08-17T11:58:58.192Z,1013.59
2018-08-17T11:59:58.183Z,1013.66
2018-08-17T12:00:58.180Z,1013.61
2018-08-17T12:01:58.176Z,1013.67
2018-08-17T12:02:58.150Z,1013.64
2018-08-17T12:03:58.139Z,1013.64
2018-08-17T12:04:58.130Z,1013.67
2018-08-17T12:05:58.134Z,1013.63
2018-08-17T12:06:58.109Z,1013.56